Time;durP1;ratioP1;P1;durP2;ratioP2;P2;SDS_P1;SDS_P2;PMS_P1;PMS_P2;Temp;Humidity;BMP_temperature;BMP_pressure;BME280_temperature;BME280_humidity;BME280_pressure;Samples;Min_cycle;Max_cycle;Signal;HPM_P1;HPM_P2
2022/04/03 00:00:16;;;;;;;7.10;3.30;;;10.50;61.00;;;;;;10283318;28;20633;-86
2022/04/03 00:05:19;;;;;;;11.87;3.33;;;11.90;60.50;;;;;;10257048;28;20311;-87
2022/04/03 00:10:22;;;;;;;6.37;3.83;;;7.60;65.60;;;;;;10251570;28;20236;-86
2022/04/03 00:15:25;;;;;;;8.13;3.87;;;9.50;65.10;;;;;;10253487;29;20295;-86
2022/04/03 00:20:27;;;;;;;7.87;3.57;;;6.70;56.00;;;;;;10252573;28;20240;-86
2022/04/03 00:25:30;;;;;;;6.57;3.80;;;8.70;63.60;;;;;;10263377;28;20240;-86
2022/04/03 00:30:34;;;;;;;8.53;4.03;;;8.10;58.20;;;;;;10253208;29;20659;-86
2022/04/03 00:35:36;;;;;;;5.97;3.90;;;9.70;62.10;;;;;;10260847;28;20291;-86
2022/04/03 00:40:41;;;;;;;4.43;2.93;;;8.60;60.50;;;;;;10306524;28;20755;-86
2022/04/03 00:45:46;;;;;;;10.47;3.77;;;9.00;64.30;;;;;;10259886;28;20298;-86
2022/04/03 00:50:48;;;;;;;3.87;2.80;;;8.00;59.80;;;;;;10292298;28;20242;-86
2022/04/03 00:55:51;;;;;;;7.93;3.87;;;7.50;66.10;;;;;;10252177;28;20682;-86
2022/04/03 01:00:53;;;;;;;10.10;3.90;;;7.00;58.90;;;;;;10252634;28;20301;-86
2022/04/03 01:05:56;;;;;;;4.10;2.70;;;6.50;63.30;;;;;;10251753;28;20239;-86
2022/04/03 01:10:59;;;;;;;5.83;2.47;;;8.30;64.30;;;;;;10290060;28;20237;-86
2022/04/03 01:16:02;;;;;;;6.07;2.90;;;9.60;62.00;;;;;;10270897;28;20253;-86
2022/04/03 01:21:05;;;;;;;5.30;3.50;;;10.60;61.80;;;;;;10278135;28;20515;-85
2022/04/03 01:26:08;;;;;;;5.67;3.43;;;10.60;55.50;;;;;;10283970;28;20233;-86
2022/04/03 01:31:10;;;;;;;6.77;3.23;;;7.60;58.50;;;;;;10221654;29;20227;-85
2022/04/03 01:36:13;;;;;;;7.90;3.87;;;6.80;60.10;;;;;;10233157;28;20318;-85
2022/04/03 01:41:15;;;;;;;8.43;4.07;;;7.50;58.50;;;;;;10290377;28;20246;-85
2022/04/03 01:46:18;;;;;;;3.90;2.80;;;5.90;60.30;;;;;;10258222;28;20264;-86
2022/04/03 01:51:21;;;;;;;5.37;2.67;;;8.70;63.30;;;;;;10264194;28;20230;-85
2022/04/03 01:56:23;;;;;;;3.90;2.33;;;9.80;63.30;;;;;;10250688;28;20736;-85
2022/04/03 02:01:26;;;;;;;3.40;2.03;;;9.00;61.00;;;;;;10251184;28;20820;-86
2022/04/03 02:06:29;;;;;;;5.27;3.67;;;6.70;68.50;;;;;;10275589;28;20619;-85
2022/04/03 02:11:31;;;;;;;4.70;2.70;;;9.10;56.50;;;;;;10269641;28;20236;-85
2022/04/03 02:16:34;;;;;;;4.10;2.60;;;6.70;59.60;;;;;;10247998;28;20302;-85
2022/04/03 02:21:37;;;;;;;4.60;2.40;;;7.80;65.20;;;;;;10288443;28;20239;-84
2022/04/03 02:26:40;;;;;;;6.10;3.47;;;6.80;71.70;;;;;;10288294;28;20284;-84
2022/04/03 02:31:42;;;;;;;4.73;2.30;;;8.60;67.20;;;;;;10284452;28;20826;-85
2022/04/03 02:36:45;;;;;;;3.47;2.70;;;5.90;67.70;;;;;;10263501;28;20254;-84
2022/04/03 02:41:47;;;;;;;3.07;2.20;;;6.60;71.00;;;;;;10286135;28;20225;-85
2022/04/03 02:46:50;;;;;;;3.87;3.47;;;9.30;61.50;;;;;;10287115;28;20233;-85
2022/04/03 02:51:52;;;;;;;3.50;2.30;;;6.10;60.30;;;;;;10287290;28;20280;-85
2022/04/03 02:56:55;;;;;;;4.20;2.37;;;6.30;75.50;;;;;;10285538;28;20249;-84
2022/04/03 03:01:57;;;;;;;4.17;2.90;;;7.30;69.90;;;;;;10286314;28;20201;-84
2022/04/03 03:07:00;;;;;;;4.43;2.27;;;7.40;66.20;;;;;;10269320;28;20323;-84
2022/04/03 03:12:03;;;;;;;3.23;2.53;;;7.20;70.30;;;;;;10248392;28;20679;-84
2022/04/03 03:17:05;;;;;;;5.40;3.97;;;5.50;69.90;;;;;;10259744;28;20251;-84
2022/04/03 03:22:08;;;;;;;8.47;3.70;;;5.90;59.60;;;;;;10247266;29;20616;-84
2022/04/03 03:27:11;;;;;;;4.53;3.10;;;6.90;60.70;;;;;;10246706;28;20284;-84
2022/04/03 03:32:13;;;;;;;5.10;3.30;;;4.50;68.30;;;;;;10272681;28;20316;-85
2022/04/03 03:37:16;;;;;;;4.60;2.70;;;;;;;;;;10246156;28;20242;-84
2022/04/03 03:42:20;;;;;;;9.70;4.43;;;5.90;71.90;;;;;;10247478;28;20719;-84
2022/04/03 03:47:22;;;;;;;4.10;2.10;;;6.10;64.80;;;;;;10257791;28;20225;-84
2022/04/03 03:52:25;;;;;;;4.67;3.47;;;7.70;66.20;;;;;;10273804;28;20264;-85
2022/04/03 03:57:27;;;;;;;3.27;2.20;;;6.70;60.40;;;;;;10294266;28;20292;-83
2022/04/03 04:02:29;;;;;;;4.60;2.70;;;5.10;73.70;;;;;;10278546;28;20289;-83
2022/04/03 04:07:42;;;;;;;5.23;3.30;;;7.20;64.00;;;;;;10261322;28;20237;-83
2022/04/03 04:12:46;;;;;;;4.27;2.43;;;9.00;63.00;;;;;;10259141;28;20226;-83
2022/04/03 04:17:52;;;;;;;4.50;3.50;;;6.70;66.70;;;;;;10253696;28;20312;-83
2022/04/03 04:22:54;;;;;;;4.77;3.77;;;10.00;58.60;;;;;;10287574;28;20259;-83
2022/04/03 04:27:58;;;;;;;2.67;1.90;;;10.30;50.30;;;;;;10256035;28;20240;-83
2022/04/03 04:33:01;;;;;;;2.80;2.23;;;9.30;63.60;;;;;;10268070;28;20278;-83
2022/04/03 04:38:04;;;;;;;5.37;2.83;;;9.20;62.70;;;;;;10252535;29;20705;-83
2022/04/03 04:43:07;;;;;;;6.07;4.30;;;8.90;61.10;;;;;;10268433;28;20234;-83
2022/04/03 04:48:09;;;;;;;8.50;4.77;;;7.60;59.30;;;;;;10291738;28;20303;-83
2022/04/03 04:53:12;;;;;;;7.97;4.17;;;5.50;57.00;;;;;;10290189;28;20283;-83
2022/04/03 04:58:15;;;;;;;8.40;4.73;;;;;;;;;;10253689;28;20262;-83
2022/04/03 05:03:18;;;;;;;5.27;3.80;;;4.80;64.90;;;;;;10250539;29;20226;-83
2022/04/03 05:08:21;;;;;;;2.83;2.17;;;4.70;69.20;;;;;;10277808;28;20233;-83
2022/04/03 05:13:25;;;;;;;3.63;2.43;;;7.00;67.90;;;;;;10290636;28;20276;-84
2022/04/03 05:18:28;;;;;;;6.23;3.93;;;6.20;64.30;;;;;;10289563;28;20724;-83
2022/04/03 05:23:31;;;;;;;8.93;3.80;;;4.90;69.90;;;;;;10287230;28;20276;-84
2022/04/03 05:28:35;;;;;;;9.10;4.40;;;4.80;70.50;;;;;;10259185;28;20288;-84
2022/04/03 05:33:39;;;;;;;2.60;1.63;;;4.00;62.70;;;;;;10248795;28;20293;-84
2022/04/03 05:38:44;;;;;;;2.47;2.00;;;8.90;66.80;;;;;;10248566;28;20684;-84
2022/04/03 05:43:46;;;;;;;3.23;2.27;;;10.10;62.60;;;;;;10246975;28;20685;-84
2022/04/03 05:48:49;;;;;;;4.20;2.37;;;10.60;57.40;;;;;;10252946;28;20227;-83
2022/04/03 05:53:52;;;;;;;3.20;2.03;;;11.50;58.30;;;;;;10247033;28;20233;-83
2022/04/03 05:58:54;;;;;;;5.83;3.20;;;12.80;55.20;;;;;;10246018;29;20260;-83
2022/04/03 06:03:57;;;;;;;4.20;2.47;;;13.10;52.60;;;;;;10231955;28;20229;-83
2022/04/03 06:08:59;;;;;;;2.67;1.70;;;13.60;53.00;;;;;;10250244;28;20288;-83
2022/04/03 06:14:02;;;;;;;5.03;3.33;;;13.80;52.30;;;;;;10247669;29;20233;-83
2022/04/03 06:19:05;;;;;;;5.33;3.70;;;10.30;50.20;;;;;;10246586;28;20282;-83
2022/04/03 06:24:07;;;;;;;8.10;4.07;;;7.40;57.30;;;;;;10248438;28;20266;-83
2022/04/03 06:29:10;;;;;;;4.50;3.03;;;5.60;61.70;;;;;;10247299;29;20222;-83
2022/04/03 06:34:12;;;;;;;5.50;3.53;;;8.40;61.80;;;;;;10245682;28;20257;-82
2022/04/03 06:39:16;;;;;;;6.90;4.87;;;5.10;67.40;;;;;;10246337;29;20265;-83
2022/04/03 06:44:18;;;;;;;7.93;5.00;;;5.60;60.10;;;;;;10269601;28;20650;-83
2022/04/03 06:49:21;;;;;;;8.60;5.33;;;4.10;64.70;;;;;;10247527;28;20630;-83
2022/04/03 06:54:23;;;;;;;5.43;4.40;;;6.50;58.90;;;;;;10244814;28;20281;-83
2022/04/03 06:59:27;;;;;;;12.50;3.43;;;5.00;62.40;;;;;;10275994;28;20628;-83
2022/04/03 07:04:30;;;;;;;3.03;2.30;;;5.90;63.90;;;;;;10284962;28;20229;-83
2022/04/03 07:09:37;;;;;;;7.77;6.27;;;4.80;72.40;;;;;;10265284;28;20238;-83
2022/04/03 07:14:40;;;;;;;7.20;4.03;;;5.90;62.60;;;;;;10259231;28;20254;-84
2022/04/03 07:19:43;;;;;;;5.87;3.13;;;5.70;63.60;;;;;;10247921;28;20297;-84
2022/04/03 07:24:46;;;;;;;9.00;4.33;;;4.70;62.60;;;;;;10250266;28;20936;-84
2022/04/03 07:29:49;;;;;;;3.60;3.00;;;5.20;65.40;;;;;;10251567;28;20289;-84
2022/04/03 07:34:51;;;;;;;7.37;3.73;;;4.40;64.20;;;;;;10252023;28;20813;-84
2022/04/03 07:39:54;;;;;;;21.80;10.63;;;4.90;69.10;;;;;;10251305;29;20241;-84
2022/04/03 07:44:56;;;;;;;6.17;3.77;;;4.80;63.00;;;;;;10252901;28;20697;-85
2022/04/03 07:49:59;;;;;;;5.53;3.20;;;7.10;57.70;;;;;;10247776;28;20660;-85
2022/04/03 07:55:01;;;;;;;5.13;3.50;;;5.10;63.90;;;;;;10293648;28;20331;-85
2022/04/03 08:00:10;;;;;;;4.80;2.03;;;5.20;62.00;;;;;;10279385;28;20266;-85
2022/04/03 08:05:14;;;;;;;6.33;3.07;;;8.70;64.30;;;;;;10233856;28;20317;-85
2022/04/03 08:10:22;;;;;;;5.63;2.87;;;6.90;58.20;;;;;;10252287;28;20701;-85
2022/04/03 08:15:25;;;;;;;6.00;2.77;;;6.30;56.40;;;;;;10272227;28;20778;-85
2022/04/03 08:20:27;;;;;;;5.40;2.43;;;4.90;57.50;;;;;;10259581;28;20234;-85
2022/04/03 08:25:31;;;;;;;5.47;2.60;;;7.10;58.10;;;;;;10268931;28;20269;-85
2022/04/03 08:30:36;;;;;;;4.40;2.83;;;6.00;58.40;;;;;;10250247;28;20242;-84
2022/04/03 08:35:40;;;;;;;5.30;1.97;;;6.70;56.70;;;;;;10251609;28;20258;-85
2022/04/03 08:40:43;;;;;;;6.47;3.27;;;7.60;64.90;;;;;;10264850;28;20233;-86
2022/04/03 08:45:47;;;;;;;4.57;2.97;;;11.90;48.00;;;;;;10289042;28;20652;-85
2022/04/03 08:50:51;;;;;;;2.97;1.87;;;9.50;54.30;;;;;;10251313;28;20238;-85
2022/04/03 08:55:54;;;;;;;3.17;2.00;;;7.80;63.90;;;;;;10266004;28;20674;-85
2022/04/03 09:00:56;;;;;;;1.90;1.70;;;8.50;63.60;;;;;;10250625;28;20220;-86
2022/04/03 09:06:19;;;;;;;4.10;2.17;;;11.10;58.50;;;;;;10262590;28;20647;-85
2022/04/03 09:11:27;;;;;;;3.67;1.80;;;8.90;45.70;;;;;;10291402;28;20658;-85
2022/04/03 09:16:39;;;;;;;1.77;1.27;;;8.40;45.90;;;;;;10254667;28;20718;-85
2022/04/03 09:21:42;;;;;;;3.57;1.80;;;7.50;55.80;;;;;;10268571;28;20296;-85
2022/04/03 09:26:56;;;;;;;1.57;1.47;;;9.50;58.80;;;;;;10273481;28;20712;-85
2022/04/03 09:32:03;;;;;;;2.70;1.90;;;13.00;55.00;;;;;;10280368;28;20273;-86
2022/04/03 09:37:05;;;;;;;2.40;1.93;;;13.30;53.80;;;;;;10285479;28;20253;-85
2022/04/03 09:42:12;;;;;;;1.83;1.40;;;12.10;41.50;;;;;;10290868;28;20241;-85
2022/04/03 09:47:29;;;;;;;3.90;1.90;;;13.90;52.00;;;;;;10288314;28;20202;-85
2022/04/03 09:52:51;;;;;;;4.40;1.60;;;14.70;50.10;;;;;;10287608;28;20245;-85
2022/04/03 09:58:12;;;;;;;3.70;2.37;;;11.00;51.00;;;;;;10271915;28;20667;-85
2022/04/03 10:03:22;;;;;;;3.37;2.10;;;9.60;48.30;;;;;;10264070;28;20264;-84
2022/04/03 10:08:27;;;;;;;5.27;2.17;;;8.50;48.80;;;;;;10266643;28;20200;-85
2022/04/03 10:13:30;;;;;;;2.37;1.70;;;9.00;51.20;;;;;;10255763;28;20696;-85
2022/04/03 10:18:34;;;;;;;3.10;1.83;;;10.80;58.60;;;;;;10248017;28;20269;-85
2022/04/03 10:23:40;;;;;;;4.07;1.90;;;11.20;47.20;;;;;;10247830;28;20235;-85
2022/04/03 10:28:52;;;;;;;1.70;1.30;;;9.00;54.10;;;;;;10252046;28;20239;-85
2022/04/03 10:33:55;;;;;;;1.60;1.07;;;11.30;57.20;;;;;;10275913;28;20248;-85
2022/04/03 10:39:04;;;;;;;2.30;1.60;;;14.40;49.80;;;;;;10249993;28;20253;-85
2022/04/03 10:44:23;;;;;;;1.90;1.40;;;12.40;52.70;;;;;;10248116;28;20651;-85
2022/04/03 10:49:58;;;;;;;3.17;1.40;;;13.20;51.60;;;;;;10253720;28;20245;-85
2022/04/03 10:55:02;;;;;;;1.47;1.17;;;14.70;49.00;;;;;;9563713;28;10000792;-84
2022/04/03 11:00:14;;;;;;;1.40;1.20;;;14.50;48.40;;;;;;10271957;28;20257;-85
2022/04/03 11:05:25;;;;;;;4.10;1.50;;;12.00;54.00;;;;;;10251854;28;20226;-85
2022/04/03 11:10:48;;;;;;;1.80;1.40;;;12.50;52.60;;;;;;10242895;28;20628;-85
2022/04/03 11:16:02;;;;;;;1.87;1.37;;;14.10;48.40;;;;;;10257442;28;20332;-85
2022/04/03 11:21:23;;;;;;;2.50;1.33;;;14.60;48.30;;;;;;10275336;28;20296;-85
2022/04/03 11:26:27;;;;;;;4.97;1.80;;;15.10;47.20;;;;;;10266937;28;20241;-85
2022/04/03 11:31:40;;;;;;;2.30;1.27;;;10.50;41.20;;;;;;10249420;28;20257;-84
2022/04/03 11:36:43;;;;;;;6.27;2.03;;;9.70;51.60;;;;;;10265251;28;20311;-85
2022/04/03 11:41:51;;;;;;;3.40;1.60;;;11.10;40.10;;;;;;10264314;28;20213;-85
2022/04/03 11:46:54;;;;;;;1.67;1.40;;;10.50;39.10;;;;;;10277146;28;20237;-84
2022/04/03 11:52:10;;;;;;;2.07;1.40;;;6.40;47.50;;;;;;10284517;28;20268;-86
2022/04/03 11:57:12;;;;;;;2.43;1.37;;;9.70;41.50;;;;;;10285637;28;20273;-86
2022/04/03 12:02:15;;;;;;;2.13;1.40;;;9.30;41.70;;;;;;10259959;28;20265;-85
2022/04/03 12:07:18;;;;;;;6.67;2.43;;;8.80;43.20;;;;;;10251062;28;20676;-86
2022/04/03 12:12:24;;;;;;;3.13;2.67;;;8.50;44.10;;;;;;10258405;28;20269;-86
2022/04/03 12:17:27;;;;;;;5.87;2.80;;;8.50;46.70;;;;;;10269390;28;20638;-86
2022/04/03 12:22:31;;;;;;;3.87;2.63;;;8.50;47.10;;;;;;10276436;28;20326;-86
2022/04/03 12:27:35;;;;;;;5.37;2.03;;;8.50;46.20;;;;;;10290973;28;20241;-83
2022/04/03 12:32:42;;;;;;;6.27;2.43;;;8.40;46.00;;;;;;10274977;28;20237;-83
2022/04/03 12:37:45;;;;;;;6.07;2.23;;;8.70;46.00;;;;;;10291121;28;20265;-83
2022/04/03 12:42:48;;;;;;;3.67;1.83;;;8.50;45.90;;;;;;10261829;28;20230;-83
2022/04/03 12:47:58;;;;;;;1.63;1.23;;;8.10;45.80;;;;;;10252720;28;20284;-82
2022/04/03 12:53:03;;;;;;;5.47;2.10;;;8.40;45.90;;;;;;10251941;29;20292;-83
2022/04/03 12:58:25;;;;;;;8.67;2.43;;;8.40;47.90;;;;;;10267858;28;20264;-83
2022/04/03 13:03:36;;;;;;;8.37;2.00;;;7.90;48.00;;;;;;10289935;28;20241;-84
2022/04/03 13:08:41;;;;;;;5.90;1.70;;;8.20;48.40;;;;;;10272300;28;20291;-84
2022/04/03 13:13:43;;;;;;;5.53;1.90;;;10.30;46.50;;;;;;10261447;28;20685;-84
2022/04/03 13:18:46;;;;;;;5.97;1.57;;;11.70;44.30;;;;;;10233067;29;20704;-84
2022/04/03 13:23:48;;;;;;;3.23;1.47;;;11.60;44.30;;;;;;10250230;28;20240;-84
2022/04/03 13:29:12;;;;;;;10.47;1.77;;;12.60;42.80;;;;;;10285895;28;20213;-84
2022/04/03 13:34:16;;;;;;;9.70;2.43;;;12.90;42.20;;;;;;10289783;28;20256;-85
2022/04/03 13:39:18;;;;;;;2.67;2.10;;;12.90;43.20;;;;;;10249904;28;20252;-85
2022/04/03 13:44:21;;;;;;;2.93;1.80;;;11.00;45.50;;;;;;10249363;29;20286;-84
2022/04/03 13:49:24;;;;;;;5.07;1.90;;;8.40;45.80;;;;;;10235783;28;20236;-85
2022/04/03 13:54:27;;;;;;;3.50;1.60;;;10.20;52.30;;;;;;10249796;28;20244;-84
2022/04/03 13:59:29;;;;;;;3.43;1.97;;;12.60;47.70;;;;;;10248977;28;20268;-84
2022/04/03 14:04:32;;;;;;;3.03;1.87;;;12.60;45.30;;;;;;10264579;28;20227;-84
2022/04/03 14:09:34;;;;;;;5.07;2.33;;;12.60;47.30;;;;;;10244906;29;20256;-84
2022/04/03 14:14:37;;;;;;;2.70;1.80;;;11.70;42.80;;;;;;10245319;28;20290;-84
2022/04/03 14:19:39;;;;;;;1.73;1.17;;;12.40;47.00;;;;;;10253341;28;20252;-84
2022/04/03 14:24:42;;;;;;;2.17;1.17;;;12.90;47.30;;;;;;10259171;28;20249;-85
2022/04/03 14:29:45;;;;;;;5.80;2.03;;;12.90;47.40;;;;;;10254241;28;20280;-84
2022/04/03 14:34:47;;;;;;;2.23;1.50;;;13.70;45.70;;;;;;10251401;28;20678;-84
2022/04/03 14:39:50;;;;;;;2.13;1.50;;;13.30;45.40;;;;;;10256409;28;20254;-84
2022/04/03 14:44:52;;;;;;;2.30;1.30;;;13.90;45.30;;;;;;10247790;28;20679;-84
2022/04/03 14:49:55;;;;;;;2.83;1.50;;;14.10;44.70;;;;;;10228294;28;20246;-84
2022/04/03 14:54:58;;;;;;;1.90;0.90;;;14.20;44.40;;;;;;10255670;28;20618;-83
2022/04/03 15:00:04;;;;;;;2.67;1.60;;;13.90;44.80;;;;;;10269324;28;20646;-84
2022/04/03 15:05:08;;;;;;;2.33;1.43;;;14.40;43.70;;;;;;10287054;28;20237;-83
2022/04/03 15:10:10;;;;;;;1.37;1.00;;;14.20;41.50;;;;;;10287458;28;20295;-83
2022/04/03 15:15:13;;;;;;;1.30;1.00;;;14.40;43.70;;;;;;10261260;28;20230;-83
2022/04/03 15:20:16;;;;;;;3.67;1.60;;;14.30;42.00;;;;;;10245318;29;20289;-84
2022/04/03 15:25:18;;;;;;;2.30;1.67;;;11.30;45.70;;;;;;9913804;28;10001221;-83
2022/04/03 15:30:21;;;;;;;1.80;1.20;;;13.50;43.20;;;;;;10247630;28;20233;-83
2022/04/03 15:35:24;;;;;;;2.10;1.57;;;12.80;45.20;;;;;;10242531;28;20246;-84
2022/04/03 15:40:31;;;;;;;1.67;1.10;;;13.90;44.70;;;;;;10246813;28;20249;-84
2022/04/03 15:45:34;;;;;;;3.07;1.90;;;13.80;44.60;;;;;;10251693;29;20229;-84
2022/04/03 15:50:37;;;;;;;1.67;1.37;;;14.00;42.20;;;;;;10279201;28;20287;-84
2022/04/03 15:55:39;;;;;;;1.17;0.97;;;13.10;45.80;;;;;;10289350;28;20229;-84
2022/04/03 16:00:42;;;;;;;2.00;1.00;;;13.90;44.50;;;;;;10272636;28;20245;-83
2022/04/03 16:05:45;;;;;;;3.33;1.77;;;14.30;43.80;;;;;;10237509;28;20234;-83
2022/04/03 16:10:47;;;;;;;1.77;1.03;;;14.30;43.50;;;;;;10244624;28;20229;-83
2022/04/03 16:15:51;;;;;;;1.47;1.00;;;14.40;43.60;;;;;;10255795;28;20229;-84
2022/04/03 16:20:54;;;;;;;1.73;1.20;;;14.30;43.30;;;;;;10268442;28;20249;-84
2022/04/03 16:25:58;;;;;;;1.73;1.03;;;14.50;43.30;;;;;;10261039;28;20238;-84
2022/04/03 16:31:01;;;;;;;4.00;1.10;;;14.50;43.10;;;;;;10262375;28;20947;-84
2022/04/03 16:36:03;;;;;;;1.60;1.00;;;14.60;43.20;;;;;;10290986;28;20681;-85
2022/04/03 16:41:06;;;;;;;2.67;1.40;;;14.60;43.20;;;;;;10292669;28;20249;-84
2022/04/03 16:46:10;;;;;;;2.50;1.37;;;14.50;43.20;;;;;;10274507;28;20759;-84
2022/04/03 16:51:12;;;;;;;2.23;1.10;;;14.50;43.40;;;;;;10269190;28;20316;-85
2022/04/03 16:56:15;;;;;;;1.70;1.40;;;14.40;43.40;;;;;;10246821;28;20262;-85
2022/04/03 17:01:18;;;;;;;3.50;1.27;;;14.50;43.30;;;;;;10264990;28;20398;-85
2022/04/03 17:06:20;;;;;;;2.10;1.20;;;14.40;43.30;;;;;;10249968;28;20222;-85
2022/04/03 17:11:24;;;;;;;1.77;1.20;;;14.40;43.20;;;;;;10250870;29;20614;-85
2022/04/03 17:16:27;;;;;;;2.00;1.63;;;14.40;43.40;;;;;;10237878;28;20277;-84
2022/04/03 17:21:29;;;;;;;2.83;1.60;;;14.40;43.40;;;;;;10261987;28;20253;-85
2022/04/03 17:26:32;;;;;;;2.93;1.40;;;14.30;43.40;;;;;;10248678;28;20613;-85
2022/04/03 17:31:34;;;;;;;7.07;1.40;;;14.10;43.60;;;;;;10233247;28;20242;-85
2022/04/03 17:36:37;;;;;;;2.53;1.90;;;14.10;43.60;;;;;;10249293;29;20699;-85
2022/04/03 17:41:40;;;;;;;1.93;1.37;;;14.10;43.60;;;;;;10248853;28;20234;-85
2022/04/03 17:46:43;;;;;;;1.93;1.47;;;14.30;43.30;;;;;;10246865;28;20648;-85
2022/04/03 17:51:45;;;;;;;1.80;1.37;;;14.40;43.30;;;;;;10246994;28;20277;-85
2022/04/03 17:56:49;;;;;;;1.73;1.30;;;14.30;43.30;;;;;;10231545;29;20658;-85
2022/04/03 18:01:52;;;;;;;1.90;1.53;;;14.40;43.20;;;;;;10247897;28;20217;-85
2022/04/03 18:06:56;;;;;;;2.60;1.53;;;14.40;43.10;;;;;;10252991;28;20242;-84
2022/04/03 18:12:02;;;;;;;2.23;1.67;;;14.40;43.20;;;;;;10249676;28;20234;-85
2022/04/03 18:17:07;;;;;;;2.57;1.50;;;14.40;43.20;;;;;;10245664;28;20277;-85
2022/04/03 18:22:10;;;;;;;2.33;1.53;;;14.40;43.10;;;;;;10229620;28;20234;-86
2022/04/03 18:27:13;;;;;;;1.77;1.63;;;14.40;43.20;;;;;;10243710;28;20309;-86
2022/04/03 18:32:17;;;;;;;3.53;1.83;;;14.40;43.30;;;;;;10244987;28;20234;-85
2022/04/03 18:37:20;;;;;;;1.80;1.53;;;14.40;43.20;;;;;;10245268;28;20246;-86
2022/04/03 18:42:22;;;;;;;3.93;1.77;;;14.40;43.20;;;;;;10248094;29;20265;-86
2022/04/03 18:47:26;;;;;;;4.17;1.93;;;14.40;43.20;;;;;;10246971;28;20215;-85
2022/04/03 18:52:29;;;;;;;3.80;2.17;;;14.20;43.40;;;;;;10242023;28;20617;-86
2022/04/03 18:57:32;;;;;;;3.23;1.90;;;14.10;43.60;;;;;;10241934;28;20269;-85
2022/04/03 19:02:34;;;;;;;4.07;2.10;;;14.00;43.90;;;;;;10230205;29;20308;-86
2022/04/03 19:07:37;;;;;;;6.20;3.93;;;13.80;44.20;;;;;;10240850;28;20238;-86
2022/04/03 19:12:40;;;;;;;5.47;2.43;;;13.70;43.80;;;;;;10247482;28;20234;-86
2022/04/03 19:17:43;;;;;;;3.43;2.13;;;13.50;44.20;;;;;;10246972;28;20292;-85
2022/04/03 19:22:45;;;;;;;3.13;2.10;;;13.40;45.20;;;;;;10264627;28;20234;-86
2022/04/03 19:27:49;;;;;;;6.63;3.37;;;13.30;45.40;;;;;;10241219;29;20230;-85
2022/04/03 19:32:51;;;;;;;3.57;2.40;;;13.20;45.40;;;;;;10255940;28;20272;-85
2022/04/03 19:37:55;;;;;;;5.10;2.80;;;13.10;45.80;;;;;;9586201;28;10000603;-85
2022/04/03 19:42:58;;;;;;;2.90;1.97;;;13.20;45.90;;;;;;10248825;28;20238;-86
2022/04/03 19:48:00;;;;;;;6.13;2.87;;;13.30;45.70;;;;;;10244198;28;20238;-85
2022/04/03 19:53:03;;;;;;;4.10;2.47;;;13.60;45.40;;;;;;10240250;28;20258;-85
2022/04/03 19:58:06;;;;;;;3.17;2.30;;;13.80;45.10;;;;;;10274739;28;20261;-86
2022/04/03 20:03:08;;;;;;;5.30;3.10;;;13.60;45.00;;;;;;10274581;28;20844;-85
2022/04/03 20:08:11;;;;;;;5.67;3.50;;;13.80;45.20;;;;;;10236581;28;20246;-85
2022/04/03 20:13:13;;;;;;;5.23;2.80;;;13.80;45.20;;;;;;10237149;28;20234;-85
2022/04/03 20:18:17;;;;;;;5.57;3.40;;;13.90;45.00;;;;;;10278164;28;20304;-85
2022/04/03 20:23:19;;;;;;;4.43;2.90;;;13.80;45.10;;;;;;10266111;28;20234;-85
2022/04/03 20:28:23;;;;;;;4.27;3.20;;;13.80;45.20;;;;;;10280156;28;20237;-84
2022/04/03 20:33:27;;;;;;;5.30;3.43;;;13.90;45.00;;;;;;10262727;28;20299;-85
2022/04/03 20:38:29;;;;;;;4.93;3.33;;;14.00;44.90;;;;;;10261582;28;20250;-85
2022/04/03 20:43:33;;;;;;;6.17;3.87;;;13.90;45.00;;;;;;10248424;28;20266;-86
2022/04/03 20:48:35;;;;;;;6.87;3.60;;;13.70;45.30;;;;;;10251340;28;20237;-85
2022/04/03 20:53:40;;;;;;;11.13;6.23;;;13.90;45.00;;;;;;10266667;28;20269;-87
2022/04/03 20:58:43;;;;;;;13.57;7.80;;;13.80;44.60;;;;;;10256389;28;20783;-87
2022/04/03 21:03:45;;;;;;;7.80;4.10;;;13.30;44.30;;;;;;10266423;28;20245;-87
2022/04/03 21:08:48;;;;;;;5.43;3.83;;;12.50;47.20;;;;;;10262972;28;20640;-87
2022/04/03 21:13:51;;;;;;;7.03;4.23;;;13.40;45.90;;;;;;10251047;28;20827;-87
2022/04/03 21:18:53;;;;;;;7.23;3.67;;;13.70;45.60;;;;;;10250450;28;20681;-87
2022/04/03 21:23:56;;;;;;;10.80;5.10;;;13.80;45.30;;;;;;10251689;28;20230;-87
2022/04/03 21:28:59;;;;;;;13.57;6.37;;;13.70;45.30;;;;;;10268893;28;20245;-87
2022/04/03 21:34:01;;;;;;;8.73;4.37;;;13.60;45.30;;;;;;10274035;28;20241;-87
2022/04/03 21:39:04;;;;;;;7.37;5.00;;;13.80;45.40;;;;;;10246581;28;20266;-87
2022/04/03 21:44:06;;;;;;;8.57;4.83;;;14.00;45.10;;;;;;10248814;28;20621;-87
2022/04/03 21:49:11;;;;;;;10.73;5.37;;;13.70;44.90;;;;;;10247014;28;20289;-86
2022/04/03 21:54:14;;;;;;;7.87;5.17;;;13.70;45.30;;;;;;10263122;28;20238;-87
2022/04/03 21:59:17;;;;;;;9.73;4.80;;;13.70;45.40;;;;;;10231087;28;20321;-86
2022/04/03 22:04:19;;;;;;;14.13;5.03;;;13.70;45.30;;;;;;10240233;29;20289;-87
2022/04/03 22:09:22;;;;;;;11.73;5.87;;;13.70;45.50;;;;;;10245603;28;20242;-87
2022/04/03 22:14:24;;;;;;;14.43;7.33;;;13.80;45.30;;;;;;10242767;29;21599;-87
2022/04/03 22:19:27;;;;;;;9.27;5.37;;;13.80;44.20;;;;;;10239167;28;20250;-87
2022/04/03 22:24:29;;;;;;;8.40;4.83;;;13.80;45.30;;;;;;10248831;28;20644;-86
2022/04/03 22:29:32;;;;;;;8.77;5.77;;;13.70;45.50;;;;;;10244896;28;20203;-86
2022/04/03 22:34:35;;;;;;;11.50;5.37;;;13.80;45.60;;;;;;10248617;28;20242;-86
2022/04/03 22:39:37;;;;;;;10.83;5.37;;;13.80;45.40;;;;;;10249075;28;20253;-86
2022/04/03 22:44:40;;;;;;;9.17;5.23;;;13.60;45.70;;;;;;10259056;28;20195;-86
2022/04/03 22:49:43;;;;;;;8.73;4.87;;;13.70;45.70;;;;;;10254031;28;20210;-86
2022/04/03 22:54:46;;;;;;;10.97;6.00;;;13.70;44.80;;;;;;10252969;28;20213;-87
2022/04/03 22:59:49;;;;;;;9.07;5.50;;;13.90;45.30;;;;;;10271341;28;20221;-87
2022/04/03 23:04:51;;;;;;;8.83;5.10;;;13.90;45.30;;;;;;10296092;28;20995;-87
2022/04/03 23:09:54;;;;;;;9.70;4.97;;;14.00;45.20;;;;;;10295242;28;20631;-87
2022/04/03 23:14:56;;;;;;;9.13;4.83;;;14.10;45.00;;;;;;10298566;28;20230;-86
2022/04/03 23:19:59;;;;;;;9.77;4.93;;;14.10;44.90;;;;;;10298889;28;20289;-86
2022/04/03 23:25:02;;;;;;;9.33;5.13;;;14.00;45.10;;;;;;10298986;28;20178;-86
2022/04/03 23:30:06;;;;;;;7.40;5.27;;;14.00;45.20;;;;;;10301049;28;20198;-86
2022/04/03 23:35:11;;;;;;;8.43;5.03;;;14.10;45.10;;;;;;10316781;28;20269;-86
2022/04/03 23:40:14;;;;;;;8.40;5.43;;;14.10;45.00;;;;;;10311056;28;20241;-86
2022/04/03 23:45:17;;;;;;;12.17;5.57;;;14.20;44.90;;;;;;10284596;28;20206;-86
2022/04/03 23:50:20;;;;;;;9.17;5.07;;;14.20;44.90;;;;;;10290329;28;20289;-86
2022/04/03 23:55:23;;;;;;;7.47;4.63;;;14.30;44.70;;;;;;10270712;28;20198;-87
